Terminal Aerodrome Forecast
Issued by NWS Wilmington, OH

Current Version | Previous Version | Graphics & Text | Print | Product List | Glossary On
Versions: 1 2 3 4 5 6 7 8 9 10 11 12 13 14 15 16 17 18 19
815
FTUS41 KILN 191700
TAFDAY
TAF
KDAY 191725Z 1918/2018 33012G20KT P6SM BKN035
     FM200100 34006KT P6SM SCT250
     FM201600 02008KT P6SM SCT150=

USA.gov is the U.S. government's official web portal to all federal, state and local government web resources and services.